Timeline UpdatesTrip UpdatesNews PostsPvt PostsTravel TipsAdmin PostsConv PostsFollowed PostsChat RequestsBlog PostsPNR Posts

Disclaimer
Search
 
 
Wed Apr 23, 2014 21:04:27 ISTHomeTrainsΣChainsAtlasPNRForumGalleryNewsFAQTripsMembersLoginFeedback
No Recent News for this Train
Other Trains in the News **new
Latest...
.
Tue Jan 22, 2013 (09:18AM)
⇐ Return Journey: Train# 51421

51422/Nizamabad Pune Passenger (UnReserved)

Jan 16 2014 (7:31PM)
Change Departure Station:
Change Arrival Station:
Post a Train Travel TipPost a Train Travel Tip **new
Post a Comment/Question/Picture/VideoPost a Comment/Question/Picture/Video
Pantry/Catering
✕ NO Pantry Car
✓ Catering Avbl
Loco/Rake Reversals
DD/Daund Junction (7);
RSA - Rake Sharing
51433-34 and 51451-52
Rake/Coach Composition
SLR, UR, UR, UR, UR, UR, UR, UR, SLR,
Loco
PUNE WDM/G-3A / WDM-3D
News    PNR    Forum    Time-Table    Availability    Fare Chart    Map    Arr/Dep History    Trips    Gallery    ΣChains    X/O    Timeline    
Travel Time: 7h 25m    27 halts    Distance: 238 km    Avg Speed: 32 km/hr
Type: Passenger
Zone: CR/Central
Departs @ 13:30 (Avg 3h 7m late)
Platform# 1
SMTWTFS
Chitali/CIT 
Arrives @ 20:55 (Avg 3h 14m late)
Platform# 6
SMTWTFS
Pune Junction/PUNE 

27 halts. 33 intermediate Stations between Chitali and Pune Junction

Show ALL intermediate Stations  Show Old Time-Table

#CodeStation NameX/OArrivesAvgDepartsAvgHaltPFDay#KmSpeedElevZoneAddress
1NZBNizamabad (3)  -23:40+1:52--1-535.547384mSCRNizamabad, Andhra Pradesh
2JKMJankampet Junction (1)  23:48+1:5323:49+1:531m11-529.256391mSCRJankampet Junction nizamabad dist., Andhra Pradesh
3NVTNavipet (2)  23:59+1:5300:01+1:542m--1-519.953374mSCRNizamabad, Andhra Pradesh
4FKBFakrabad (1)  00:09-00:10-1m--2-512.867348mSCRBasara, Andhra Pradesh
5BSXBasar (2)  00:16+1:5000:18+1:512m12-506.159358mSCRDist Adilabad, Andhra Pradesh
6DABDharmabad (2)  00:28+1:5400:29+1:551m--2-496.368354mSCRDegaon, Maharashtra
7KEKKarkheliX  00:41+1:5500:42+1:571m--2-482.756358mSCRBiloli, Maharashtra
8BLSABolsaXO  00:50+1:5800:51+2:001m--2-475.222361mSCRDharmabad, Maharashtra
9UMRIUmriXO  01:14+1:5001:15+1:501m--2-466.852381mSCRNanded, Maharashtra
10SLGHShelgaon Halt  01:24-01:25-1m--2-459.067378mSCRMudkhed, Maharashtra
11SVNSivungaonX  01:29+1:5601:30+1:571m--2-454.515395mSCRNanded, Maharashtra
12MUEMudkhed Junction (4)  01:58+2:0502:00+2:072m--2-447.361378mSCRMudkhed, Maharashtra
13MGCMugat  02:09+2:0902:10+2:151m--2-438.250360mSCRNanded, Maharashtra
14PARDPathrad  02:14-02:15-1m--2-434.948363mSCRHuzur Sahib Nanded, Maharashtra
15MTDIMaltekdi  02:24-02:25-1m--2-427.811362mSCRNanded, Maharashtra
16NEDHazur Sahib Nanded (4)  02:40+1:5902:45+2:135m22-425.077366mSCRNanded ph.no 09730471954, Maharashtra
17WNGWanegaonX  02:50-02:51-1m--2-418.640371mSCRChudawa, Maharashtra
18LBGLimbgaonX  02:58+2:2202:59+2:251m--2-413.972390mSCRHuzur Sahib Nanded, Maharashtra
19CRUChudawa (1)X  03:07+2:2703:08+2:311m12-404.335392mSCRHingoli, Maharashtra
20PAUPurna Junction (4)X  03:25+2:2703:30+2:415m--2-394.452384mSCRPurna, Maharashtra
21MQLMirkhal  03:44+2:4203:45+2:441m--2-382.354405mSCRPurna, Maharashtra
22PIZPingliX  03:51+2:4603:52+2:481m--2-376.960399mSCRParbhani, Maharashtra
23PBNParbhani Junction (3)X  04:03+2:3704:05+2:392m12-365.966414mSCRParbhani 431401, Maharashtra
24PGPergaon  04:16+2:5304:17+2:531m--2-353.873441mSCRParbhani, Maharashtra
25DAVDevalgaon Avchar  04:22-04:23-1m--2-347.892425mSCRParbhani, Maharashtra
26MVOManwath Road (2)  04:29+2:5804:30+3:001m--2-338.582421mSCRParbhani, Maharashtra
27DGPPDhengli Pimpalgaon  04:34+4:0604:35+4:051m--2-333.196407mSCRSatuna, Maharashtra
28SELUSelu (2)  04:41+3:0804:42+3:111m--2-323.587436mSCRParbhani, Maharashtra
29SCOSatuna  04:49+3:1504:50+3:161m--2-313.353440mSCRSatona, Maharashtra
30UPRUsmanpur  04:59+3:1705:00+3:181m--2-305.420444mSCRUsmanpur, Maharashtra
31PTUPartur (2)X  05:29+3:0105:30+3:071m--2-295.948465mSCRJalna, Maharashtra
32PDGParadgaon  05:39+3:0405:40+3:041m--2-288.742454mSCRUsmanpur, Maharashtra
33RNERanjaniO  05:49+3:0405:50+3:051m--2-282.523469mSCRJalna, Maharashtra
34KODIKodiX  06:19+2:4806:20+2:491m--2-271.243473mSCRRanjani, Maharashtra
35SVDSarwari  06:34+2:4606:35+2:471m--2-261.321493mSCRRanjani, Maharashtra
36JJalna (3)  07:03+2:2907:05+2:332m--2-251.660502mSCRJalna, Maharashtra
37BDUBadnapur  07:24+2:3507:25+2:391m--2-232.666523mSCRJalna, Maharashtra
38KMVKarmadX  07:39+2:4107:40+2:441m--2-217.126567mSCRAurangabad, Maharashtra
39CTHChikalthan  07:49+2:4807:50+2:531m--2-213.2-582mSCRAurangabad, Maharashtra
40MKDDMukundwadi Halt (1)  07:54+2:4407:55+2:441m12-198.930580mSCRAurangabad, Maharashtra
41AWBAurangabad (5)X  08:15+2:4408:20+2:465m--2-188.953561mSCRAurangabad 431001, Maharashtra
42DLBDaulatabad (1)  08:34+2:4708:35+2:481m12-176.440575mSCRDaulatabad, Maharashtra
43POZPotul (1)  08:49+2:4308:50+2:441m12-167.137554mSCRLasur, Maharashtra
44LSRLasur (2)  09:09+2:3609:10+2:381m--2-155.368536mSCRAurangabad, Maharashtra
45KAJGKaranjgaon  09:19+2:3709:20+2:381m--2-145.231523mSCRLasur, Maharashtra
46PSDParsoda  09:29+2:3509:30+2:371m--2-140.553530mSCRRotegaon, Maharashtra
47RGORotegaonX  09:44+2:3309:45+2:351m--2-128.293547mSCRAurangabad, Maharashtra
48TRTarur  09:59+2:3510:00+2:401m--2-106.419586mSCRTaru, Maharashtra
49NSLNagarsol (2)  10:19+2:2910:20+2:321m--2-100.225589mSCRDist. Nashik, Maharashtra
50MMRManmad Junction (6)X  11:30+2:1511:40+2:2310m42-75.420580mCRManmad 423104, Maharashtra
51ANKAnkai (3)  12:18+012:20+02m22-62.572620mSCRDist. Nashik, Maharashtra
52YLYeola (2)  12:33+2:4512:35+2:522m--2-46.863553mCRYeola, Maharashtra
53KPGKopargaon (2)12:48+2:5112:50+2:582m12-33.266508mCRKopargaon Tel: 02423-222268, Maharashtra
54SNVRSanvatsarX  12:57+2:5812:58+2:581m--2-25.458521mCRNagpur-Aurngabad-Mumbai Hwy, Maharashtra
55KNGNKanhegaon (2)X  13:06+2:5713:08+3:012m--2-17.854498mCRAhmadnagar, Maharashtra
56PBPuntamba Junction (2)  13:18+3:0513:20+3:082m22-8.866501mCRPuntamba, Maharashtra
57CIT»Chitali (1)»X13:28+3:0413:30+3:072m120.025531mCRAhmadnagar, Maharashtra
58BAPBelapur (2)  13:58+2:5214:00+2:572m2211.553541mCRShrirampur, Maharashtra
59NPWNipani Vadgaon (2)  14:07+2:5814:08+2:581m--217.751531mCRChitali, Maharashtra
60PDGNPadhegaon (1)  14:15+2:5814:17+3:032m1223.678512mCRBelapur, Maharashtra
61TKMYTaklimiya (1)  14:24+3:0314:25+3:031m1232.739511mCRVambori, Maharashtra
62RRIRahuri (2)X  14:33+3:0214:35+3:052m--237.961519mCRAhmadnagar, Maharashtra
63VBRVambori (1)X  14:48+3:0414:50+3:062m1251.125547mCRAhmadnagar, Maharashtra
64VLVilad (1)X  15:18+2:5115:20+2:532m1262.657598mCRAhmadnagar, Maharashtra
65NNBNimblak (1)  15:29-15:30-1m1271.222656mCRAhmednagar, Maharashtra
66ANGAhmadnagar (2)  15:50+2:4415:55+2:455m1278.540650mCRAhmednagar 414001, Maharashtra
67AKRAkolner (1)  16:14+2:4116:15+2:461m1291.343689mCRAhmadnagar, Maharashtra
68SRLSarola (2)  16:23+2:4716:25+2:552m1297.1450mCRAhmadnagar, Maharashtra
69RNJDRanjangaon Road (1)X  16:39+2:5216:40+2:571m12107.546656mCRDist. Pune, Maharashtra
70VPRVisapur (2)X  16:48+2:5816:50+3:052m12113.729186mCRAhmadnagar, Maharashtra
71BWDBelwandi (2)X  17:18+2:5217:20+2:582m12127.465592mCRAhmadnagar, Maharashtra
72SGNDShrigonda Road (2)X  17:33+2:5717:35+3:012m22141.621547mCRAhmadnagar, Maharashtra
73KSTHKashti (2)  17:59+2:4918:00+3:011m12149.817540mCRDaund, Maharashtra
74DDDaund Junction (7)X18:45+2:3919:00+3:0015m42162.750521mCRNew Daund Dist. Pune 413801, Maharashtra
75PAAPatas (3)  19:14+3:0819:15+3:111m12174.358532mCRDist. Pune 412219, Maharashtra
76KDTNKadethanX  19:20+3:1019:21+3:101m12179.138532mCRDaund, Maharashtra
77KDGKedgaon (2)  19:29+3:1019:30+3:131m22184.264544mCRDist. Pune 412203, Maharashtra
78KTTKhutbavX  19:36+3:1119:37+3:111m12190.642558mCRShirur-Daund Rd Daund, Maharashtra
79YTYevat (2)X  19:46+3:1119:47+3:161m12196.963550mCRDist. Pune 412214, Maharashtra
80URIUruli (2)  19:59+3:1520:00+3:211m12209.562553mCRDist. Pune 412202, Maharashtra
81LONILoni (2)  20:12+3:2020:13+3:241m12221.956541mCRPune 412201, Maharashtra
82MJBKManjari Budruk (2)X  20:19+3:2320:20+3:231m12227.542550mCRPune 412307, Maharashtra
83HDPHadapsar (3)  20:27+3:2220:28+3:251m22232.436554mCRPune 411028, Maharashtra
84GPRWGhorpuri West (2)  20:34-20:35-1m12236.17552mCRPune 411001, Maharashtra
85PUNE•Pune Junction (6)•  20:55+3:14-62238.3-556mCRPune 411001, Maharashtra
Scroll to Top
Scroll to Bottom